Time;durP1;ratioP1;P1;durP2;ratioP2;P2;SDS_P1;SDS_P2;PMS_P1;PMS_P2;Temp;Humidity;BMP_temperature;BMP_pressure;BME280_temperature;BME280_humidity;BME280_pressure;Samples;Min_cycle;Max_cycle;Signal;HPM_P1;HPM_P2
2020/12/12 00:01:03;;;;;;;14.83;10.67;;;5.50;99.90;;;;;;5064710;28;20241;-75
2020/12/12 00:03:30;;;;;;;14.77;9.23;;;5.60;99.90;;;;;;5063708;28;20203;-75
2020/12/12 00:05:56;;;;;;;13.73;9.97;;;5.50;99.90;;;;;;5081592;28;20230;-75
2020/12/12 00:08:22;;;;;;;15.50;10.20;;;5.40;99.90;;;;;;5068269;28;20210;-75
2020/12/12 00:10:49;;;;;;;16.17;9.60;;;5.40;99.90;;;;;;5054097;28;20214;-75
2020/12/12 00:13:16;;;;;;;13.90;9.90;;;5.50;99.90;;;;;;4718584;28;10001156;-74
2020/12/12 00:15:43;;;;;;;14.83;10.77;;;5.50;99.90;;;;;;5083718;28;20210;-75
2020/12/12 00:18:09;;;;;;;15.60;10.07;;;5.50;99.90;;;;;;5083683;28;20236;-75
2020/12/12 00:20:36;;;;;;;14.47;10.00;;;5.60;99.90;;;;;;5080316;28;20202;-75
2020/12/12 00:23:03;;;;;;;16.80;9.57;;;5.70;99.90;;;;;;5084895;28;20325;-76
2020/12/12 00:25:29;;;;;;;13.20;9.13;;;5.60;99.90;;;;;;5089695;28;20263;-78
2020/12/12 00:27:56;;;;;;;15.03;9.90;;;5.60;99.90;;;;;;5074195;28;20267;-76
2020/12/12 00:30:23;;;;;;;13.23;9.63;;;5.70;99.90;;;;;;5093265;28;20198;-77
2020/12/12 00:32:49;;;;;;;14.10;9.37;;;5.60;99.90;;;;;;5088701;28;20237;-77
2020/12/12 00:35:16;;;;;;;14.33;10.07;;;5.60;99.90;;;;;;5110119;28;20207;-77
2020/12/12 00:37:42;;;;;;;15.67;9.07;;;5.60;99.90;;;;;;5077790;28;20227;-78
2020/12/12 00:40:09;;;;;;;12.90;8.83;;;5.60;99.90;;;;;;5081550;28;20247;-78
2020/12/12 00:42:35;;;;;;;15.00;10.07;;;5.60;99.90;;;;;;5089958;28;20195;-78
2020/12/12 00:45:02;;;;;;;13.60;9.43;;;5.70;99.90;;;;;;5066018;28;20202;-77
2020/12/12 00:47:29;;;;;;;16.70;10.70;;;5.60;99.90;;;;;;5091467;28;20209;-78
2020/12/12 00:49:55;;;;;;;14.03;9.43;;;5.60;99.90;;;;;;5066097;28;20688;-78
2020/12/12 00:52:21;;;;;;;14.53;9.63;;;5.60;99.90;;;;;;5065537;28;20263;-78
2020/12/12 00:54:47;;;;;;;15.33;10.00;;;5.70;99.90;;;;;;5097982;28;20218;-78
2020/12/12 00:57:17;;;;;;;14.10;9.67;;;5.80;99.90;;;;;;5064403;28;20573;-79
2020/12/12 00:59:43;;;;;;;19.20;10.07;;;5.80;99.90;;;;;;5086259;28;20252;-78
2020/12/12 01:02:10;;;;;;;15.10;10.37;;;5.80;99.90;;;;;;5085767;28;20271;-77
2020/12/12 01:04:36;;;;;;;15.23;10.07;;;5.80;99.90;;;;;;5097027;28;20665;-78
2020/12/12 01:07:03;;;;;;;13.77;10.13;;;5.70;99.90;;;;;;5062790;28;20206;-79
2020/12/12 01:09:30;;;;;;;15.03;10.20;;;5.80;99.90;;;;;;5080147;28;20702;-79
2020/12/12 01:11:56;;;;;;;14.80;9.60;;;5.70;99.90;;;;;;5082394;28;20218;-79
2020/12/12 01:14:23;;;;;;;15.73;11.17;;;5.80;99.90;;;;;;5068501;28;20226;-79
2020/12/12 01:16:49;;;;;;;13.93;9.13;;;5.80;99.90;;;;;;5093036;28;20268;-78
2020/12/12 01:19:16;;;;;;;14.80;9.90;;;5.80;99.90;;;;;;5096568;28;20210;-79
2020/12/12 01:21:43;;;;;;;14.93;9.07;;;5.80;99.90;;;;;;5098060;28;20239;-79
2020/12/12 01:24:10;;;;;;;13.83;9.47;;;5.80;99.90;;;;;;5093372;28;20258;-78
2020/12/12 01:26:36;;;;;;;14.20;9.70;;;5.70;99.90;;;;;;5094321;28;20310;-79
2020/12/12 01:29:02;;;;;;;13.17;9.23;;;5.80;99.90;;;;;;5059311;28;20252;-77
2020/12/12 01:31:29;;;;;;;16.13;9.90;;;5.80;99.90;;;;;;5081354;28;20260;-77
2020/12/12 01:33:55;;;;;;;14.57;9.50;;;5.80;99.90;;;;;;5073337;28;20206;-78
2020/12/12 01:36:21;;;;;;;14.40;9.83;;;5.90;99.90;;;;;;5080492;28;20194;-78
2020/12/12 01:38:48;;;;;;;11.93;8.23;;;6.00;99.90;;;;;;5068392;28;20206;-78
2020/12/12 01:41:18;;;;;;;11.10;7.60;;;6.00;99.90;;;;;;5094050;28;20298;-78
2020/12/12 01:43:52;;;;;;;14.97;9.83;;;5.90;99.90;;;;;;5101689;28;20221;-78
2020/12/12 01:46:23;;;;;;;12.10;8.33;;;5.80;99.90;;;;;;5096977;28;20202;-79
2020/12/12 01:48:55;;;;;;;15.03;9.50;;;5.80;99.90;;;;;;5089085;28;20190;-78
2020/12/12 01:51:25;;;;;;;13.70;8.77;;;5.90;99.90;;;;;;5096647;28;20637;-79
2020/12/12 01:53:58;;;;;;;13.77;8.63;;;6.00;99.90;;;;;;5095535;28;20195;-78
2020/12/12 01:56:28;;;;;;;11.73;7.87;;;6.00;99.90;;;;;;5090538;28;20255;-80
2020/12/12 01:58:54;;;;;;;14.83;10.03;;;6.00;99.90;;;;;;5068491;28;20202;-78
2020/12/12 02:01:22;;;;;;;12.47;8.80;;;6.10;99.90;;;;;;5084953;28;20225;-79
2020/12/12 02:03:51;;;;;;;14.33;8.57;;;6.10;99.90;;;;;;5079544;28;20325;-79
2020/12/12 02:06:19;;;;;;;14.07;9.53;;;6.00;99.90;;;;;;5097658;28;20268;-79
2020/12/12 02:08:46;;;;;;;11.73;9.10;;;6.10;99.90;;;;;;5096244;28;20256;-79
2020/12/12 02:11:13;;;;;;;10.40;8.10;;;6.10;99.90;;;;;;5097851;28;20278;-78
2020/12/12 02:13:45;;;;;;;12.87;8.87;;;6.20;99.90;;;;;;5075276;28;20556;-78
2020/12/12 02:16:17;;;;;;;12.73;9.17;;;6.20;99.90;;;;;;5080836;28;20714;-80
2020/12/12 02:18:44;;;;;;;13.07;8.90;;;6.10;99.90;;;;;;5093963;28;20229;-79
2020/12/12 02:21:11;;;;;;;12.83;9.07;;;6.10;99.90;;;;;;5098916;28;20211;-79
2020/12/12 02:23:37;;;;;;;11.67;8.77;;;6.20;99.90;;;;;;5098997;28;20667;-78
2020/12/12 02:26:05;;;;;;;12.17;8.73;;;6.10;99.90;;;;;;5060364;28;20200;-81
2020/12/12 02:28:40;;;;;;;14.60;9.70;;;6.10;99.90;;;;;;5061367;28;20202;-79
2020/12/12 02:31:06;;;;;;;12.80;9.47;;;6.30;99.90;;;;;;5077640;28;20209;-80
2020/12/12 02:33:33;;;;;;;14.90;8.20;;;6.20;99.90;;;;;;5077622;28;20624;-78
2020/12/12 02:35:59;;;;;;;13.70;8.93;;;6.30;99.90;;;;;;5058289;28;20249;-80
2020/12/12 02:38:25;;;;;;;13.20;9.23;;;6.10;99.90;;;;;;5062348;28;20210;-80
2020/12/12 02:40:52;;;;;;;12.67;9.03;;;6.10;99.90;;;;;;5102432;28;20540;-78
2020/12/12 02:43:19;;;;;;;14.20;9.20;;;6.20;99.90;;;;;;5087357;28;20629;-79
2020/12/12 02:45:46;;;;;;;12.67;8.43;;;6.20;99.90;;;;;;5066422;28;20530;-79
2020/12/12 02:48:13;;;;;;;15.13;9.07;;;6.20;99.90;;;;;;5074442;28;20208;-79
2020/12/12 02:50:41;;;;;;;12.80;9.50;;;6.20;99.90;;;;;;5069575;28;20280;-80
2020/12/12 02:53:08;;;;;;;11.60;8.13;;;6.20;99.90;;;;;;5074464;28;20199;-80
2020/12/12 02:55:34;;;;;;;12.50;8.93;;;6.20;99.90;;;;;;5075298;28;20207;-80
2020/12/12 02:58:00;;;;;;;12.83;8.90;;;6.30;99.90;;;;;;5050217;28;20211;-81
2020/12/12 03:00:27;;;;;;;14.07;8.57;;;6.20;99.90;;;;;;5089366;28;20232;-80
2020/12/12 03:02:54;;;;;;;13.63;8.80;;;6.20;99.90;;;;;;5056231;28;20515;-79
2020/12/12 03:05:20;;;;;;;13.47;8.23;;;6.20;99.90;;;;;;5104734;28;20203;-79
2020/12/12 03:07:47;;;;;;;9.63;8.13;;;6.20;99.90;;;;;;5085598;28;20232;-80
2020/12/12 03:10:13;;;;;;;13.10;8.63;;;6.30;99.90;;;;;;5082468;28;20197;-79
2020/12/12 03:12:40;;;;;;;13.00;9.30;;;6.20;99.90;;;;;;5060071;28;20287;-79
2020/12/12 03:15:08;;;;;;;13.37;8.23;;;6.30;99.90;;;;;;5104290;28;20203;-80
2020/12/12 03:17:36;;;;;;;12.70;8.77;;;6.30;99.90;;;;;;5064642;28;20302;-79
2020/12/12 03:20:05;;;;;;;12.13;8.43;;;6.30;99.90;;;;;;5086906;28;20217;-78
2020/12/12 03:22:32;;;;;;;13.13;8.40;;;6.20;99.90;;;;;;5104763;28;20236;-80
2020/12/12 03:24:59;;;;;;;13.70;9.00;;;6.30;99.90;;;;;;5100468;28;20234;-79
2020/12/12 03:27:26;;;;;;;11.10;8.20;;;6.30;99.90;;;;;;5071358;28;20295;-79
2020/12/12 03:29:52;;;;;;;12.03;8.47;;;6.30;99.90;;;;;;5089808;28;20500;-80
2020/12/12 03:32:29;;;;;;;13.13;8.17;;;6.40;99.90;;;;;;5087691;28;20522;-79
2020/12/12 03:34:56;;;;;;;12.37;8.17;;;6.30;99.90;;;;;;5105906;28;20207;-79
2020/12/12 03:37:24;;;;;;;12.63;9.20;;;6.30;99.90;;;;;;5086673;28;21964;-77
2020/12/12 03:39:50;;;;;;;13.40;8.20;;;6.30;99.90;;;;;;5103882;28;20204;-79
2020/12/12 03:42:16;;;;;;;11.57;8.50;;;6.40;99.90;;;;;;5089187;28;20302;-78
2020/12/12 03:44:42;;;;;;;11.93;8.07;;;6.50;99.90;;;;;;5105251;28;20188;-78
2020/12/12 03:47:09;;;;;;;10.60;7.87;;;6.60;99.90;;;;;;5069946;28;20219;-79
2020/12/12 03:49:35;;;;;;;13.67;8.73;;;6.50;99.90;;;;;;5080188;28;20951;-78
2020/12/12 03:52:02;;;;;;;12.27;7.73;;;6.50;99.90;;;;;;5068060;28;20231;-79
2020/12/12 03:54:30;;;;;;;12.70;8.03;;;6.50;99.90;;;;;;5095360;28;20211;-80
2020/12/12 03:56:56;;;;;;;11.90;8.00;;;6.50;99.90;;;;;;5083393;28;20261;-78
2020/12/12 03:59:22;;;;;;;12.80;9.23;;;6.50;99.90;;;;;;5093145;28;20267;-80
2020/12/12 04:01:49;;;;;;;14.20;8.30;;;6.60;99.90;;;;;;5095044;28;20210;-81
2020/12/12 04:04:15;;;;;;;12.43;8.47;;;6.50;99.90;;;;;;5057405;28;20334;-81
2020/12/12 04:06:42;;;;;;;12.47;8.47;;;6.60;99.90;;;;;;5076670;28;20243;-81
2020/12/12 04:09:09;;;;;;;13.50;8.43;;;6.70;99.90;;;;;;5098327;28;20655;-80
2020/12/12 04:11:35;;;;;;;14.43;9.27;;;6.70;99.90;;;;;;5066552;28;20674;-82
2020/12/12 04:14:02;;;;;;;11.87;8.20;;;6.70;99.90;;;;;;5081170;28;20191;-81
2020/12/12 04:16:28;;;;;;;14.87;9.00;;;6.70;99.90;;;;;;5091452;28;20197;-81
2020/12/12 04:18:55;;;;;;;13.57;8.37;;;6.80;99.90;;;;;;5085278;28;20202;-81
2020/12/12 04:21:21;;;;;;;12.90;8.63;;;6.80;99.90;;;;;;5098795;28;20570;-81
2020/12/12 04:23:48;;;;;;;12.63;8.03;;;6.70;99.90;;;;;;5067453;28;20287;-81
2020/12/12 04:26:14;;;;;;;14.37;9.10;;;6.80;99.90;;;;;;5067508;28;20218;-80
2020/12/12 04:28:41;;;;;;;14.17;8.07;;;6.90;99.90;;;;;;5068631;28;20195;-80
2020/12/12 04:31:08;;;;;;;14.40;8.37;;;6.80;99.90;;;;;;5076383;28;20230;-80
2020/12/12 04:33:35;;;;;;;12.80;8.67;;;6.80;99.90;;;;;;5080558;28;20230;-80
2020/12/12 04:36:03;;;;;;;17.07;8.93;;;6.90;99.90;;;;;;5105100;28;20210;-81
2020/12/12 04:38:32;;;;;;;17.60;9.33;;;6.80;99.90;;;;;;5087473;28;20227;-80
2020/12/12 04:41:09;;;;;;;15.57;8.27;;;6.90;99.90;;;;;;5103003;28;20194;-81
2020/12/12 04:43:38;;;;;;;11.83;7.90;;;6.90;99.90;;;;;;5087294;28;20211;-81
2020/12/12 04:46:05;;;;;;;15.37;8.20;;;6.90;99.90;;;;;;5086644;28;20196;-79
2020/12/12 04:48:32;;;;;;;14.30;9.07;;;6.80;99.90;;;;;;5096522;28;20183;-81
2020/12/12 04:50:58;;;;;;;15.67;9.00;;;6.90;99.90;;;;;;5102402;28;20217;-80
2020/12/12 04:53:25;;;;;;;22.77;9.03;;;6.80;99.90;;;;;;5101755;28;20211;-79
2020/12/12 04:55:54;;;;;;;17.27;8.93;;;6.80;99.90;;;;;;5102121;28;20209;-81
2020/12/12 04:58:24;;;;;;;18.17;9.20;;;6.90;99.90;;;;;;5104394;28;21037;-80
2020/12/12 05:00:52;;;;;;;12.60;8.40;;;6.90;99.90;;;;;;5101754;28;20222;-80
2020/12/12 05:03:21;;;;;;;23.33;9.10;;;6.90;99.90;;;;;;5102440;28;20194;-79
2020/12/12 05:05:48;;;;;;;16.00;9.03;;;7.00;99.90;;;;;;5104272;28;20237;-80
2020/12/12 05:08:15;;;;;;;20.40;9.47;;;7.00;99.90;;;;;;5101280;28;20202;-80
2020/12/12 05:10:50;;;;;;;14.97;9.37;;;7.10;99.90;;;;;;5100348;28;20259;-81
2020/12/12 05:13:21;;;;;;;16.23;8.93;;;6.90;99.90;;;;;;5107937;28;20206;-80
2020/12/12 05:15:49;;;;;;;16.57;9.67;;;7.00;99.90;;;;;;5109878;28;20220;-80
2020/12/12 05:18:16;;;;;;;14.57;9.17;;;7.10;99.90;;;;;;5101032;28;20218;-78
2020/12/12 05:20:43;;;;;;;15.13;8.60;;;7.10;99.90;;;;;;5091315;28;20442;-79
2020/12/12 05:23:12;;;;;;;16.37;9.10;;;7.10;99.90;;;;;;5095370;28;20682;-82
2020/12/12 05:25:40;;;;;;;17.77;8.50;;;7.10;99.90;;;;;;5094710;28;20246;-80
2020/12/12 05:28:08;;;;;;;14.10;8.83;;;7.10;99.90;;;;;;5093093;28;20198;-81
2020/12/12 05:30:36;;;;;;;13.83;8.87;;;7.10;99.90;;;;;;5086935;28;20209;-81
2020/12/12 05:33:04;;;;;;;19.00;8.30;;;7.10;99.90;;;;;;5091484;28;20205;-82
2020/12/12 05:35:30;;;;;;;15.67;9.60;;;7.20;99.90;;;;;;5107122;28;20328;-82
2020/12/12 05:38:05;;;;;;;24.57;9.00;;;7.20;99.90;;;;;;5073766;28;20218;-81
2020/12/12 05:40:33;;;;;;;17.27;8.53;;;7.20;99.90;;;;;;5092110;28;20190;-81
2020/12/12 05:43:05;;;;;;;18.97;9.53;;;7.10;99.90;;;;;;5090317;28;20195;-81
2020/12/12 05:45:32;;;;;;;17.80;8.73;;;7.10;99.90;;;;;;5098029;28;20308;-79
2020/12/12 05:47:58;;;;;;;19.57;9.17;;;7.10;99.90;;;;;;5101695;28;20210;-80
2020/12/12 05:50:25;;;;;;;19.97;9.07;;;7.10;99.90;;;;;;5103887;28;20224;-80
2020/12/12 05:52:54;;;;;;;17.03;9.37;;;7.20;99.90;;;;;;5095294;28;20210;-78
2020/12/12 05:55:28;;;;;;;18.83;10.00;;;7.20;99.90;;;;;;5097547;28;20186;-80
2020/12/12 05:57:55;;;;;;;18.73;10.07;;;7.30;99.90;;;;;;5099909;28;20554;-80
2020/12/12 06:00:23;;;;;;;17.63;10.47;;;7.30;99.90;;;;;;5098948;28;20204;-78
2020/12/12 06:02:53;;;;;;;20.43;9.50;;;7.30;99.90;;;;;;5087087;28;21502;-80
2020/12/12 06:05:25;;;;;;;17.97;9.00;;;7.20;99.90;;;;;;5099933;28;20195;-80
2020/12/12 06:07:55;;;;;;;14.60;9.43;;;7.20;99.90;;;;;;5110989;28;20191;-79
2020/12/12 06:10:26;;;;;;;19.77;8.83;;;7.20;99.90;;;;;;5097849;28;20253;-80
2020/12/12 06:13:00;;;;;;;21.70;9.50;;;7.30;99.90;;;;;;5101159;28;20638;-80
2020/12/12 06:15:40;;;;;;;18.63;9.50;;;7.40;99.90;;;;;;5092079;28;20286;-81
2020/12/12 06:18:30;;;;;;;18.13;9.37;;;7.40;99.90;;;;;;5095506;28;20226;-80
2020/12/12 06:21:03;;;;;;;16.67;9.80;;;7.40;99.90;;;;;;5097406;28;20240;-80
2020/12/12 06:23:31;;;;;;;14.17;8.83;;;7.30;99.90;;;;;;5092322;28;20307;-81
2020/12/12 06:25:59;;;;;;;17.50;9.00;;;7.40;99.90;;;;;;5097471;28;20274;-82
2020/12/12 06:28:27;;;;;;;20.63;9.70;;;7.30;99.90;;;;;;5093335;28;20283;-82
2020/12/12 06:30:56;;;;;;;18.40;10.17;;;7.40;99.90;;;;;;5091158;28;20256;-82
2020/12/12 06:33:23;;;;;;;18.30;9.23;;;7.40;99.90;;;;;;5093868;28;20225;-80
2020/12/12 06:35:51;;;;;;;17.17;9.57;;;7.40;99.90;;;;;;5072741;28;20206;-81
2020/12/12 06:38:17;;;;;;;23.23;9.97;;;7.40;99.90;;;;;;5072700;28;20239;-81
2020/12/12 06:40:44;;;;;;;27.47;10.00;;;7.40;99.90;;;;;;5095059;28;20339;-81
2020/12/12 06:43:34;;;;;;;27.37;9.80;;;7.40;99.90;;;;;;5083498;28;20968;-81
2020/12/12 06:46:06;;;;;;;26.87;10.37;;;7.50;99.90;;;;;;5098586;28;20240;-80
2020/12/12 06:48:34;;;;;;;26.13;9.93;;;7.50;99.90;;;;;;5102373;28;20198;-82
2020/12/12 06:51:02;;;;;;;20.73;9.63;;;7.40;99.90;;;;;;5067888;28;20208;-81
2020/12/12 06:53:30;;;;;;;21.50;10.17;;;7.50;99.90;;;;;;5075951;28;20230;-82
2020/12/12 06:56:14;;;;;;;30.60;12.27;;;7.50;99.90;;;;;;5089236;28;20198;-81
2020/12/12 06:58:43;;;;;;;20.73;9.70;;;7.50;99.90;;;;;;5096402;28;20786;-82
2020/12/12 07:01:29;;;;;;;21.40;10.47;;;7.50;99.90;;;;;;5097133;28;20273;-81
2020/12/12 07:04:04;;;;;;;27.00;11.17;;;7.50;99.90;;;;;;5080027;28;20199;-80
2020/12/12 07:06:32;;;;;;;20.53;10.40;;;7.50;99.90;;;;;;5094292;28;20199;-80
2020/12/12 07:09:05;;;;;;;21.73;11.33;;;7.50;99.90;;;;;;5087744;28;20227;-79
2020/12/12 07:11:32;;;;;;;26.20;10.43;;;7.40;99.90;;;;;;5097513;28;20241;-79
2020/12/12 07:14:00;;;;;;;20.60;10.50;;;7.40;99.90;;;;;;5089949;28;20232;-80
2020/12/12 07:16:26;;;;;;;29.67;12.30;;;7.60;99.90;;;;;;5101703;28;20202;-79
2020/12/12 07:18:53;;;;;;;26.47;10.93;;;7.60;99.90;;;;;;5098900;28;20278;-80
2020/12/12 07:21:20;;;;;;;22.03;10.13;;;7.50;99.90;;;;;;5103289;28;20198;-79
2020/12/12 07:23:47;;;;;;;30.63;11.33;;;7.60;99.90;;;;;;5100548;28;20273;-80
2020/12/12 07:26:14;;;;;;;23.70;10.17;;;7.60;99.90;;;;;;5092409;28;20661;-81
2020/12/12 07:28:41;;;;;;;32.87;11.57;;;7.70;99.90;;;;;;5063811;28;20245;-80
2020/12/12 07:31:08;;;;;;;29.70;11.87;;;7.80;99.90;;;;;;5080512;28;20214;-81
2020/12/12 07:33:34;;;;;;;26.47;11.30;;;7.70;99.90;;;;;;5096991;28;20225;-80
2020/12/12 07:36:01;;;;;;;40.20;13.23;;;7.60;99.90;;;;;;5095281;28;20198;-81
2020/12/12 07:38:27;;;;;;;25.20;10.20;;;7.60;99.90;;;;;;5077653;28;20211;-82
2020/12/12 07:40:54;;;;;;;31.73;12.07;;;7.70;99.90;;;;;;5066662;28;20211;-81
2020/12/12 07:43:21;;;;;;;25.77;11.13;;;7.70;99.90;;;;;;5089433;28;20536;-81
2020/12/12 07:48:14;;;;;;;28.17;11.57;;;7.60;99.90;;;;;;5095303;28;20199;-80
2020/12/12 07:50:40;;;;;;;25.17;12.03;;;7.60;99.90;;;;;;5062717;28;20264;-81
2020/12/12 07:53:12;;;;;;;34.57;12.50;;;7.60;99.90;;;;;;5082212;28;20249;-81
2020/12/12 07:55:47;;;;;;;27.77;12.80;;;7.60;99.90;;;;;;5054369;28;20216;-81
2020/12/12 07:58:19;;;;;;;37.03;13.73;;;7.70;99.90;;;;;;5081751;28;20255;-81
2020/12/12 08:00:55;;;;;;;33.87;12.87;;;7.70;99.90;;;;;;5098307;28;20293;-81
2020/12/12 08:03:22;;;;;;;28.03;12.57;;;7.60;99.90;;;;;;5076313;28;20252;-80
2020/12/12 08:05:48;;;;;;;29.47;12.20;;;7.70;99.90;;;;;;5087696;28;20213;-80
2020/12/12 08:08:15;;;;;;;36.27;13.13;;;7.70;99.90;;;;;;5078871;28;20231;-80
2020/12/12 08:10:41;;;;;;;28.87;12.40;;;7.70;99.90;;;;;;5058445;28;20251;-80
2020/12/12 08:13:09;;;;;;;41.47;12.27;;;7.80;99.90;;;;;;5080319;28;20421;-77
2020/12/12 08:15:41;;;;;;;37.10;13.47;;;7.80;99.90;;;;;;5089940;28;20298;-78
2020/12/12 08:18:14;;;;;;;32.73;12.20;;;7.70;99.90;;;;;;5071179;28;20790;-77
2020/12/12 08:20:41;;;;;;;40.17;12.70;;;7.70;99.90;;;;;;5100674;28;20279;-77
2020/12/12 08:23:14;;;;;;;30.00;12.70;;;7.70;99.90;;;;;;5078141;28;20269;-83
2020/12/12 08:25:41;;;;;;;39.40;12.10;;;7.60;99.90;;;;;;5093891;28;20203;-82
2020/12/12 08:28:08;;;;;;;32.43;11.93;;;7.60;99.90;;;;;;5087298;28;20217;-83
2020/12/12 08:30:35;;;;;;;32.37;12.83;;;7.70;99.90;;;;;;5053475;28;20669;-80
2020/12/12 08:33:13;;;;;;;29.20;11.80;;;7.60;99.90;;;;;;5101697;28;20246;-81
2020/12/12 08:35:52;;;;;;;44.63;12.80;;;7.70;99.90;;;;;;5084036;28;20200;-82
2020/12/12 08:38:19;;;;;;;43.83;13.63;;;7.80;99.90;;;;;;5074026;28;20214;-81
2020/12/12 08:40:47;;;;;;;41.40;13.60;;;7.90;99.90;;;;;;5073740;28;20195;-82
2020/12/12 08:43:15;;;;;;;36.80;12.97;;;7.80;99.90;;;;;;5084692;28;20263;-83
2020/12/12 08:45:43;;;;;;;51.63;13.07;;;7.80;99.90;;;;;;5100218;28;20260;-82
2020/12/12 08:48:12;;;;;;;36.77;13.37;;;7.70;99.90;;;;;;5085809;28;20214;-82
2020/12/12 08:50:47;;;;;;;40.27;14.03;;;7.70;99.90;;;;;;5086536;28;20245;-80
2020/12/12 08:53:29;;;;;;;42.70;14.63;;;7.70;99.90;;;;;;5088215;28;20198;-82
2020/12/12 08:56:05;;;;;;;38.00;14.57;;;7.70;99.90;;;;;;5087375;28;20485;-82
2020/12/12 08:58:51;;;;;;;36.07;12.40;;;7.70;99.90;;;;;;5113563;27;20205;-80
2020/12/12 09:01:23;;;;;;;36.23;13.13;;;7.70;99.90;;;;;;5088331;28;20526;-79
2020/12/12 09:04:12;;;;;;;43.60;13.27;;;7.70;99.90;;;;;;5085941;28;20225;-80
2020/12/12 09:06:51;;;;;;;38.37;12.50;;;7.70;99.90;;;;;;5074052;28;20226;-80
2020/12/12 09:09:28;;;;;;;33.90;13.13;;;7.70;99.90;;;;;;5084254;28;20206;-81
2020/12/12 09:11:58;;;;;;;45.80;12.87;;;7.70;99.90;;;;;;5070344;28;20558;-81
2020/12/12 09:14:37;;;;;;;35.67;12.23;;;7.70;99.90;;;;;;5096427;28;20267;-80
2020/12/12 09:17:10;;;;;;;41.80;14.23;;;7.70;99.90;;;;;;5087143;28;20571;-80
2020/12/12 09:19:37;;;;;;;45.00;14.23;;;7.70;99.90;;;;;;5083115;28;20254;-79
2020/12/12 09:22:08;;;;;;;38.47;13.57;;;7.80;99.90;;;;;;5071865;28;20192;-78
2020/12/12 09:24:35;;;;;;;43.90;14.60;;;7.80;99.90;;;;;;5084333;28;20206;-79
2020/12/12 09:27:02;;;;;;;40.60;14.83;;;7.80;99.90;;;;;;5084893;28;20793;-79
2020/12/12 09:29:28;;;;;;;42.70;14.20;;;7.90;99.90;;;;;;5071809;28;20265;-79
2020/12/12 09:31:56;;;;;;;41.53;13.73;;;7.90;99.90;;;;;;5071101;28;20562;-79
2020/12/12 09:34:24;;;;;;;39.00;14.63;;;8.00;99.90;;;;;;5083291;28;20202;-79
2020/12/12 09:36:52;;;;;;;43.80;14.27;;;7.90;99.90;;;;;;5067259;28;20646;-79
2020/12/12 09:39:18;;;;;;;38.53;14.07;;;7.90;99.90;;;;;;5050470;28;20211;-79
2020/12/12 09:41:45;;;;;;;38.47;13.90;;;7.90;99.90;;;;;;5098507;28;20195;-79
2020/12/12 09:44:12;;;;;;;42.87;14.47;;;8.00;99.90;;;;;;5078053;28;20188;-79
2020/12/12 09:46:38;;;;;;;35.73;14.37;;;8.00;99.90;;;;;;5082228;28;21055;-78
2020/12/12 09:49:05;;;;;;;35.97;14.17;;;8.00;99.90;;;;;;5091643;28;20202;-79
2020/12/12 09:51:32;;;;;;;48.50;14.43;;;7.90;99.90;;;;;;5092750;28;20208;-78
2020/12/12 09:53:59;;;;;;;47.23;15.13;;;8.00;99.90;;;;;;5078418;28;21001;-79
2020/12/12 09:56:25;;;;;;;35.13;15.07;;;8.00;99.90;;;;;;5095599;28;20195;-78
2020/12/12 09:58:52;;;;;;;51.10;14.97;;;8.00;99.90;;;;;;5059364;28;20317;-78
2020/12/12 10:01:18;;;;;;;37.00;17.20;;;8.10;99.90;;;;;;5078285;28;20199;-78
2020/12/12 10:03:44;;;;;;;53.47;15.70;;;8.00;99.90;;;;;;5075712;28;20187;-79
2020/12/12 10:06:11;;;;;;;53.87;16.43;;;8.10;99.90;;;;;;5075416;28;20259;-79
2020/12/12 10:08:38;;;;;;;53.43;17.03;;;8.00;99.90;;;;;;5092844;28;20200;-78
2020/12/12 10:11:05;;;;;;;47.57;16.47;;;8.10;99.90;;;;;;5087471;28;20258;-77
2020/12/12 10:13:32;;;;;;;48.33;15.87;;;8.20;99.90;;;;;;5085127;28;20274;-78
2020/12/12 10:15:58;;;;;;;57.63;17.13;;;8.20;99.90;;;;;;5073711;28;20192;-79
2020/12/12 10:18:25;;;;;;;52.07;17.53;;;8.20;99.90;;;;;;5085309;28;20208;-77
2020/12/12 10:20:52;;;;;;;57.63;17.53;;;8.10;99.90;;;;;;5086918;28;20192;-79
2020/12/12 10:23:19;;;;;;;51.00;17.00;;;8.10;99.90;;;;;;5090795;28;20632;-78
2020/12/12 10:25:45;;;;;;;63.70;18.30;;;8.20;99.90;;;;;;5072816;28;20248;-79
2020/12/12 10:28:11;;;;;;;60.73;20.17;;;8.30;99.90;;;;;;5051994;28;20265;-78
2020/12/12 10:30:38;;;;;;;52.20;17.20;;;8.20;99.90;;;;;;5071076;28;20666;-78
2020/12/12 10:33:05;;;;;;;55.60;17.47;;;8.20;99.90;;;;;;5091003;28;20199;-78
2020/12/12 10:35:32;;;;;;;61.50;19.30;;;8.30;99.90;;;;;;5071308;28;20211;-79
2020/12/12 10:37:59;;;;;;;53.90;17.10;;;8.30;99.90;;;;;;5084485;28;20251;-79
2020/12/12 10:40:32;;;;;;;68.30;21.00;;;8.40;99.90;;;;;;5087591;28;20194;-79
2020/12/12 10:42:58;;;;;;;58.50;18.03;;;8.40;99.90;;;;;;5084848;28;20592;-78
2020/12/12 10:45:25;;;;;;;72.07;20.43;;;8.40;99.90;;;;;;5083122;28;20226;-78
2020/12/12 10:47:51;;;;;;;66.53;19.20;;;8.30;99.90;;;;;;5077605;28;20271;-78
2020/12/12 10:50:18;;;;;;;62.50;19.70;;;8.40;99.90;;;;;;5064292;28;20228;-78
2020/12/12 10:52:44;;;;;;;64.20;19.43;;;8.30;99.90;;;;;;5088832;28;20213;-78
2020/12/12 10:55:11;;;;;;;60.40;20.20;;;8.40;99.90;;;;;;5063277;28;20227;-78
2020/12/12 10:57:37;;;;;;;62.27;19.20;;;8.40;99.90;;;;;;5075624;28;20284;-77
2020/12/12 11:00:07;;;;;;;64.77;20.47;;;8.40;99.90;;;;;;5096253;28;20198;-78
2020/12/12 11:02:34;;;;;;;63.30;21.80;;;8.40;99.90;;;;;;5086431;28;20217;-79
2020/12/12 11:05:02;;;;;;;64.83;20.37;;;8.50;99.90;;;;;;5089971;28;20231;-78
2020/12/12 11:07:38;;;;;;;65.27;19.67;;;8.50;99.90;;;;;;5101897;28;20214;-77
2020/12/12 11:10:04;;;;;;;72.77;19.87;;;8.40;99.90;;;;;;5086578;28;20278;-78
2020/12/12 11:12:30;;;;;;;78.30;20.93;;;8.40;99.90;;;;;;5094216;28;20225;-80
2020/12/12 11:14:57;;;;;;;66.70;20.43;;;8.50;99.90;;;;;;5047587;28;20249;-81
2020/12/12 11:17:23;;;;;;;62.37;18.80;;;8.50;99.90;;;;;;5087536;28;22175;-77
2020/12/12 11:19:49;;;;;;;74.50;20.43;;;8.50;99.90;;;;;;5070225;28;20211;-76
2020/12/12 11:22:16;;;;;;;69.97;21.07;;;8.60;99.90;;;;;;5070137;28;20248;-78
2020/12/12 11:24:43;;;;;;;78.73;23.10;;;8.60;99.90;;;;;;5085668;28;20264;-77
2020/12/12 11:27:09;;;;;;;59.90;19.37;;;8.60;99.90;;;;;;5071360;28;20269;-77
2020/12/12 11:29:35;;;;;;;55.03;18.60;;;8.70;99.90;;;;;;5086812;28;20314;-77
2020/12/12 11:32:02;;;;;;;68.03;19.97;;;8.60;99.90;;;;;;5059690;28;20251;-79
2020/12/12 11:34:39;;;;;;;57.70;18.20;;;8.60;99.90;;;;;;5096147;28;20203;-78
2020/12/12 11:48:13;;;;;;;62.00;17.60;;;8.60;99.90;;;;;;5023285;28;20205;-78
2020/12/12 11:50:39;;;;;;;68.80;20.67;;;8.60;99.90;;;;;;5088072;28;20211;-78
2020/12/12 11:53:06;;;;;;;60.67;18.87;;;8.70;99.90;;;;;;5089009;28;20204;-77
2020/12/12 11:55:33;;;;;;;66.70;19.67;;;8.70;99.90;;;;;;5095815;28;20227;-76
2020/12/12 11:57:59;;;;;;;55.43;18.63;;;8.70;99.90;;;;;;5094123;28;20307;-77
2020/12/12 12:00:26;;;;;;;62.63;18.77;;;8.80;99.90;;;;;;5079994;28;20203;-78
2020/12/12 12:02:53;;;;;;;61.10;19.10;;;8.80;99.90;;;;;;5062817;28;20290;-77
2020/12/12 12:05:28;;;;;;;59.03;18.47;;;8.80;99.90;;;;;;5087819;28;20227;-78
2020/12/12 12:07:54;;;;;;;56.97;19.73;;;8.80;99.90;;;;;;5087432;28;20231;-78
2020/12/12 12:12:47;;;;;;;61.50;18.50;;;8.90;99.90;;;;;;5095455;28;20202;-77
2020/12/12 12:15:14;;;;;;;69.03;18.77;;;9.00;99.90;;;;;;5092130;28;20203;-77
2020/12/12 12:17:40;;;;;;;54.47;17.23;;;8.90;99.90;;;;;;5070550;28;20239;-77
2020/12/12 12:20:08;;;;;;;41.17;17.17;;;8.80;99.90;;;;;;5074245;28;20533;-77
2020/12/12 12:22:35;;;;;;;50.73;17.43;;;8.80;99.90;;;;;;5090934;28;20681;-77
2020/12/12 12:25:05;;;;;;;50.60;17.40;;;9.00;99.90;;;;;;5090457;28;20593;-76
2020/12/12 12:27:33;;;;;;;57.77;17.33;;;8.90;99.90;;;;;;5086837;28;20253;-76
2020/12/12 12:29:59;;;;;;;52.53;19.97;;;9.00;99.90;;;;;;5086068;28;20203;-76
2020/12/12 12:32:25;;;;;;;62.57;17.47;;;8.90;99.90;;;;;;5089366;28;20198;-77
2020/12/12 12:34:52;;;;;;;52.43;18.53;;;9.10;99.90;;;;;;5086044;28;20203;-78
2020/12/12 12:37:18;;;;;;;59.57;20.13;;;9.10;99.90;;;;;;5088825;28;20275;-77
2020/12/12 12:39:45;;;;;;;58.73;17.63;;;9.10;99.90;;;;;;5098253;28;20191;-78
2020/12/12 12:42:11;;;;;;;70.27;18.13;;;9.10;99.90;;;;;;5056535;28;20734;-79
2020/12/12 12:44:37;;;;;;;54.40;18.73;;;9.10;99.90;;;;;;5090413;28;20240;-78
2020/12/12 12:47:04;;;;;;;46.73;17.37;;;9.10;99.90;;;;;;5059092;28;20210;-78
2020/12/12 12:49:31;;;;;;;51.73;18.07;;;9.10;99.90;;;;;;5072914;28;20203;-78
2020/12/12 12:51:57;;;;;;;58.60;18.73;;;9.10;99.90;;;;;;5093866;28;20558;-79
2020/12/12 12:54:23;;;;;;;57.17;18.67;;;9.10;99.90;;;;;;5090527;28;20195;-78
2020/12/12 12:56:50;;;;;;;46.80;17.87;;;9.10;99.90;;;;;;5072036;28;20210;-78
2020/12/12 12:59:16;;;;;;;54.80;18.87;;;9.20;99.90;;;;;;5052354;28;20260;-77
2020/12/12 13:01:43;;;;;;;58.13;18.60;;;9.20;99.90;;;;;;5083885;28;20260;-79